createdAt,value
2023-04-13T00:03:18.672Z,98.97
2023-04-13T00:08:17.898Z,98.70
2023-04-13T00:13:19.975Z,99.84
2023-04-13T00:18:21.055Z,99.52
2023-04-13T00:23:20.155Z,99.99
2023-04-13T00:28:23.249Z,99.99
2023-04-13T00:33:22.524Z,99.11
2023-04-13T00:38:23.611Z,96.06
2023-04-13T00:43:25.688Z,96.99
2023-04-13T00:48:24.738Z,99.01
2023-04-13T00:53:24.586Z,98.91
2023-04-13T00:58:25.674Z,99.63
2023-04-13T01:03:27.830Z,99.99
2023-04-13T01:08:29.183Z,99.99
2023-04-13T01:13:28.321Z,99.16
2023-04-13T01:18:30.397Z,97.09
2023-04-13T01:23:30.504Z,94.00
2023-04-13T01:28:29.633Z,94.00
2023-04-13T01:33:30.886Z,90.19
2023-04-13T01:38:32.034Z,92.97
2023-04-13T01:43:34.126Z,91.73
2023-04-13T01:48:34.209Z,95.34
2023-04-13T01:53:34.282Z,89.77
2023-04-13T01:58:33.570Z,90.95
2023-04-13T02:03:34.664Z,90.53
2023-04-13T02:08:37.029Z,94.15
2023-04-13T02:13:37.076Z,92.23
2023-04-13T02:18:36.299Z,92.23
2023-04-13T02:23:38.390Z,95.80
2023-04-13T02:28:37.451Z,95.43
2023-04-13T02:33:38.500Z,96.26
2023-04-13T02:38:39.583Z,96.51
2023-04-13T02:43:40.656Z,93.57
2023-04-13T02:48:42.746Z,88.31
2023-04-13T02:53:41.813Z,87.68
2023-04-13T02:58:42.887Z,90.99
2023-04-13T03:03:44.972Z,92.89
2023-04-13T03:08:46.060Z,97.54
2023-04-13T03:13:45.143Z,98.83
2023-04-13T03:18:47.245Z,98.93
2023-04-13T03:23:46.629Z,99.65
2023-04-13T03:28:48.711Z,99.99
2023-04-13T03:33:49.797Z,99.86
2023-04-13T03:38:48.881Z,98.97
2023-04-13T03:43:51.285Z,99.18
2023-04-13T03:48:50.377Z,99.70
2023-04-13T03:53:52.813Z,99.60
2023-04-13T03:58:52.928Z,98.56
2023-04-13T04:03:52.130Z,98.25
2023-04-13T04:08:53.265Z,99.02
2023-04-13T04:13:54.358Z,97.06
2023-04-13T04:18:57.452Z,97.26
2023-04-13T04:23:56.642Z,97.78
2023-04-13T04:28:58.799Z,99.23
2023-04-13T04:33:58.174Z,99.99
2023-04-13T04:38:59.290Z,99.99
2023-04-13T04:44:02.386Z,99.99
2023-04-13T04:49:01.463Z,99.95
2023-04-13T04:54:04.560Z,99.43
2023-04-13T04:59:03.619Z,98.82
2023-04-13T05:04:04.679Z,97.94
2023-04-13T05:09:05.771Z,97.42
2023-04-13T05:14:07.856Z,96.19
2023-04-13T05:19:08.955Z,94.94
2023-04-13T05:24:08.983Z,96.70
2023-04-13T05:29:09.038Z,94.59
2023-04-13T05:34:08.099Z,94.48
2023-04-13T05:39:10.186Z,94.75
2023-04-13T05:44:10.250Z,91.86
2023-04-13T05:49:10.327Z,94.87
2023-04-13T05:54:10.388Z,96.31
2023-04-13T05:59:10.488Z,93.98
2023-04-13T06:04:10.744Z,97.34
2023-04-13T06:09:08.996Z,94.25
2023-04-13T06:14:10.998Z,94.93
2023-04-13T06:19:10.066Z,94.62
2023-04-13T06:24:12.160Z,94.35
2023-04-13T06:29:13.208Z,96.02
2023-04-13T06:34:13.282Z,91.07
2023-04-13T06:39:13.362Z,93.91
2023-04-13T06:44:12.435Z,91.64
2023-04-13T06:49:13.526Z,93.09
2023-04-13T06:54:14.585Z,89.34
2023-04-13T06:59:15.960Z,90.51
2023-04-13T07:04:19.139Z,92.18
2023-04-13T07:09:18.205Z,91.47
2023-04-13T07:14:19.285Z,90.39
2023-04-13T07:19:21.390Z,91.06
2023-04-13T07:24:22.480Z,90.36
2023-04-13T07:29:21.605Z,86.70
2023-04-13T07:34:23.692Z,87.57
2023-04-13T07:39:22.781Z,88.62
2023-04-13T07:44:25.174Z,86.05
2023-04-13T07:49:25.244Z,85.70
2023-04-13T07:54:24.324Z,85.31
2023-04-13T07:59:26.412Z,82.05
2023-04-13T08:04:26.761Z,83.69
2023-04-13T08:09:25.913Z,83.90
2023-04-13T08:14:26.993Z,80.44
2023-04-13T08:19:30.091Z,79.52
2023-04-13T08:24:29.206Z,80.23
2023-04-13T08:29:30.260Z,79.07
2023-04-13T08:34:32.626Z,79.75
2023-04-13T08:39:31.665Z,78.24
2023-04-13T08:44:32.732Z,75.96
2023-04-13T08:49:34.808Z,75.04
2023-04-13T08:54:34.872Z,74.25
2023-04-13T08:59:33.935Z,73.81
2023-04-13T09:04:35.215Z,71.29
2023-04-13T09:09:36.396Z,70.20
2023-04-13T09:14:37.468Z,65.16
2023-04-13T09:19:38.595Z,68.36
2023-04-13T09:24:39.950Z,64.52
2023-04-13T09:29:41.016Z,66.02
2023-04-13T09:34:42.118Z,62.04
2023-04-13T09:39:43.221Z,64.23
2023-04-13T09:44:44.297Z,63.78
2023-04-13T09:49:45.353Z,62.27
2023-04-13T09:54:48.256Z,57.86
2023-04-13T09:59:48.746Z,60.60
2023-04-13T10:04:48.935Z,61.38
2023-04-13T10:09:47.961Z,55.51
2023-04-13T10:14:50.054Z,56.20
2023-04-13T10:19:49.143Z,58.96
2023-04-13T10:24:51.236Z,63.92
2023-04-13T10:29:50.378Z,61.82
2023-04-13T10:34:52.898Z,58.68
2023-04-13T10:39:52.197Z,57.24
2023-04-13T10:44:54.280Z,58.73
2023-04-13T10:49:53.358Z,57.81
2023-04-13T10:54:54.446Z,60.81
2023-04-13T10:59:59.334Z,62.48
2023-04-13T11:04:57.865Z,62.65
2023-04-13T11:10:02.861Z,66.93
2023-04-13T11:14:57.886Z,72.20
2023-04-13T11:19:58.981Z,65.64
2023-04-13T11:25:01.140Z,72.34
2023-04-13T11:30:01.220Z,75.56
2023-04-13T11:35:01.340Z,78.20
2023-04-13T11:40:00.433Z,75.21
2023-04-13T11:45:02.509Z,73.57
2023-04-13T11:50:01.608Z,73.13
2023-04-13T11:55:11.198Z,70.90
2023-04-13T12:00:03.608Z,66.84
2023-04-13T12:05:04.933Z,69.10
2023-04-13T12:10:06.796Z,66.05
2023-04-13T12:15:25.114Z,63.81
2023-04-13T12:20:07.684Z,61.98
2023-04-13T12:25:08.812Z,60.46
2023-04-13T12:30:08.913Z,61.49
2023-04-13T12:35:09.069Z,60.49
2023-04-13T12:40:08.123Z,63.43
2023-04-13T12:45:10.192Z,63.45
2023-04-13T12:50:10.253Z,64.07
2023-04-13T12:55:10.339Z,63.59
2023-04-13T13:00:09.377Z,64.71
2023-04-13T13:05:11.469Z,64.23
2023-04-13T13:10:25.805Z,66.06
2023-04-13T13:15:12.490Z,69.02
2023-04-13T13:20:11.596Z,67.41
2023-04-13T13:25:12.698Z,73.81
2023-04-13T13:30:13.781Z,77.20
2023-04-13T13:35:15.879Z,71.73
2023-04-13T13:40:15.951Z,71.49
2023-04-13T13:45:15.049Z,71.49
2023-04-13T13:50:16.164Z,70.53
2023-04-13T13:55:17.258Z,71.66
2023-04-13T14:00:19.363Z,70.91
2023-04-13T14:05:19.466Z,69.45
2023-04-13T14:10:18.552Z,69.21
2023-04-13T14:15:19.632Z,66.11
2023-04-13T14:20:21.731Z,65.02
2023-04-13T14:25:21.849Z,65.53
2023-04-13T14:30:20.915Z,65.30
2023-04-13T14:35:23.000Z,65.02
2023-04-13T14:40:22.100Z,64.20
2023-04-13T14:45:24.155Z,64.89
2023-04-13T14:50:24.293Z,64.48
2023-04-13T14:55:23.360Z,64.37
2023-04-13T15:00:24.420Z,63.63
2023-04-13T15:05:26.645Z,63.12
2023-04-13T15:10:25.691Z,63.35
2023-04-13T15:15:28.763Z,62.54
2023-04-13T15:20:27.836Z,61.92
2023-04-13T15:25:28.899Z,62.51
2023-04-13T15:30:30.988Z,63.48
2023-04-13T15:35:32.038Z,61.61
2023-04-13T15:40:32.116Z,64.48
2023-04-13T15:45:31.491Z,63.45
2023-04-13T15:50:32.643Z,62.61
2023-04-13T15:55:34.749Z,62.76
2023-04-13T16:00:34.813Z,61.97
2023-04-13T16:05:33.936Z,61.79
2023-04-13T16:10:35.041Z,64.99
2023-04-13T16:15:37.183Z,62.46
2023-04-13T16:20:37.339Z,64.87
2023-04-13T16:25:36.449Z,64.06
2023-04-13T16:30:37.557Z,63.13
2023-04-13T16:35:38.800Z,66.60
2023-04-13T16:40:39.930Z,68.30
2023-04-13T16:45:42.196Z,72.03
2023-04-13T16:50:41.706Z,70.84
2023-04-13T16:55:40.894Z,71.04
2023-04-13T17:00:42.308Z,70.29
2023-04-13T17:05:43.547Z,72.68
2023-04-13T17:10:45.014Z,73.44
2023-04-13T17:15:45.144Z,73.23
2023-04-13T17:20:44.513Z,74.98
2023-04-13T17:25:45.644Z,74.36
2023-04-13T17:30:47.793Z,73.74
2023-04-13T17:35:47.936Z,76.83
2023-04-13T17:40:47.183Z,78.30
2023-04-13T17:45:48.529Z,78.24
2023-04-13T17:50:51.793Z,79.68
2023-04-13T17:55:51.196Z,82.25
2023-04-13T18:00:49.438Z,85.01
2023-04-13T18:05:50.577Z,88.24
2023-04-13T18:10:51.822Z,90.06
2023-04-13T18:15:54.964Z,93.44
2023-04-13T18:20:57.039Z,91.48
2023-04-13T18:25:53.370Z,90.86
2023-04-13T18:30:53.946Z,92.31
2023-04-13T18:35:56.072Z,90.41
2023-04-13T18:40:56.398Z,88.90
2023-04-13T18:45:55.913Z,88.96
2023-04-13T18:50:57.449Z,89.69
2023-04-13T18:55:54.940Z,88.96
2023-04-13T19:00:54.477Z,86.90
2023-04-13T19:05:53.664Z,87.32
2023-04-13T19:10:55.716Z,86.90
2023-04-13T19:15:57.588Z,88.29
2023-04-13T19:20:56.094Z,88.90
2023-04-13T19:25:57.227Z,91.69
2023-04-13T19:30:56.722Z,93.13
2023-04-13T19:35:56.261Z,93.54
2023-04-13T19:41:00.252Z,94.72
2023-04-13T19:46:00.714Z,96.01
2023-04-13T19:50:57.214Z,98.38
2023-04-13T19:55:56.712Z,97.25
2023-04-13T20:00:58.036Z,97.14
2023-04-13T20:05:58.282Z,96.73
2023-04-13T20:10:59.955Z,96.42
2023-04-13T20:15:59.288Z,97.97
2023-04-13T20:20:58.767Z,98.79
2023-04-13T20:25:59.906Z,98.13
2023-04-13T20:31:01.400Z,97.20
2023-04-13T20:36:00.589Z,96.58
2023-04-13T20:41:01.062Z,95.65
2023-04-13T20:46:03.271Z,94.46
2023-04-13T20:51:02.419Z,94.15
2023-04-13T20:56:04.526Z,92.95
2023-04-13T21:01:04.692Z,94.46
2023-04-13T21:06:03.782Z,95.28
2023-04-13T21:11:04.964Z,94.62
2023-04-13T21:16:06.044Z,93.53
2023-04-13T21:21:07.292Z,95.28
2023-04-13T21:26:08.481Z,96.94
2023-04-13T21:31:09.675Z,96.73
2023-04-13T21:41:10.905Z,97.66
2023-04-13T21:46:13.054Z,96.62
2023-04-13T21:51:12.216Z,95.43
2023-04-13T21:56:13.453Z,96.77
2023-04-13T22:01:15.590Z,94.19
2023-04-13T22:06:15.644Z,94.65
2023-04-13T22:11:14.900Z,95.89
2023-04-13T22:16:16.079Z,97.60
2023-04-13T22:21:17.201Z,98.01
2023-04-13T22:26:18.576Z,96.88
2023-04-13T22:31:21.692Z,96.05
2023-04-13T22:36:21.758Z,94.29
2023-04-13T22:41:21.810Z,94.65
2023-04-13T22:46:21.951Z,98.00
2023-04-13T22:51:21.424Z,98.99
2023-04-13T22:56:20.478Z,97.17
2023-04-13T23:01:22.591Z,97.49
2023-04-13T23:06:21.637Z,98.31
2023-04-13T23:11:22.733Z,98.62
2023-04-13T23:16:23.995Z,97.28
2023-04-13T23:21:26.033Z,98.27
2023-04-13T23:26:26.095Z,97.60
2023-04-13T23:31:25.208Z,97.29
2023-04-13T23:36:26.357Z,98.27
2023-04-13T23:41:27.606Z,98.27
2023-04-13T23:46:28.732Z,98.10
2023-04-13T23:51:29.881Z,98.27
2023-04-13T23:56:31.338Z,99.04
